Time;durP1;ratioP1;P1;durP2;ratioP2;P2;SDS_P1;SDS_P2;PMS_P1;PMS_P2;Temp;Humidity;BMP_temperature;BMP_pressure;BME280_temperature;BME280_humidity;BME280_pressure;Samples;Min_cycle;Max_cycle;Signal;HPM_P1;HPM_P2
2022/04/09 00:00:55;;;;;;;11.50;3.22;;;7.50;99.90;;;;;;6095041;23;20018;-87
2022/04/09 00:03:20;;;;;;;14.80;3.20;;;7.30;99.90;;;;;;6068645;23;20085;-88
2022/04/09 00:05:47;;;;;;;20.30;3.20;;;10.30;99.90;;;;;;6043786;23;20029;-88
2022/04/09 00:08:13;;;;;;;16.55;3.78;;;7.30;99.90;;;;;;6045187;23;20117;-88
2022/04/09 00:10:41;;;;;;;14.35;2.83;;;7.10;99.90;;;;;;6068769;23;20053;-87
2022/04/09 00:13:07;;;;;;;10.05;2.97;;;;;;;;;;6094289;23;20026;-87
2022/04/09 00:15:33;;;;;;;15.27;2.88;;;7.10;99.90;;;;;;6092782;23;20018;-87
2022/04/09 00:17:59;;;;;;;13.15;2.53;;;6.70;99.90;;;;;;6093954;23;20484;-86
2022/04/09 00:20:25;;;;;;;16.25;2.97;;;8.30;99.90;;;;;;6067868;23;20026;-87
2022/04/09 00:22:51;;;;;;;10.55;2.47;;;7.00;99.90;;;;;;6068882;23;20082;-87
2022/04/09 00:25:24;;;;;;;12.35;2.58;;;9.90;99.90;;;;;;6045361;23;20053;-89
2022/04/09 00:27:53;;;;;;;17.40;2.58;;;6.80;99.90;;;;;;6069336;23;20022;-86
2022/04/09 00:30:19;;;;;;;13.43;2.95;;;8.40;99.90;;;;;;6094460;23;20019;-87
2022/04/09 00:32:45;;;;;;;22.60;2.85;;;6.50;99.90;;;;;;6066875;23;20033;-86
2022/04/09 00:35:11;;;;;;;13.00;2.35;;;6.80;99.90;;;;;;6068585;23;20018;-85
2022/04/09 00:37:47;;;;;;;12.57;3.00;;;6.40;99.90;;;;;;6094078;23;20057;-87
2022/04/09 00:40:15;;;;;;;12.13;2.40;;;8.80;99.90;;;;;;6069778;23;20030;-87
2022/04/09 00:42:42;;;;;;;12.82;2.85;;;7.40;99.90;;;;;;6044499;23;20025;-87
2022/04/09 00:45:09;;;;;;;12.63;2.92;;;9.50;99.90;;;;;;6068393;23;20034;-89
2022/04/09 00:47:36;;;;;;;12.85;2.50;;;7.00;99.90;;;;;;6092197;23;20014;-87
2022/04/09 00:50:06;;;;;;;10.00;2.53;;;7.30;99.90;;;;;;6067913;23;20502;-87
2022/04/09 00:52:40;;;;;;;11.82;5.70;;;8.30;99.90;;;;;;6068730;23;20025;-87
2022/04/09 00:55:06;;;;;;;19.20;5.53;;;8.30;99.90;;;;;;6095015;23;20031;-86
2022/04/09 00:57:35;;;;;;;18.58;2.70;;;7.10;99.90;;;;;;6044598;23;20070;-87
2022/04/09 01:00:09;;;;;;;3.92;2.35;;;7.20;99.90;;;;;;6092465;23;20018;-87
2022/04/09 01:02:45;;;;;;;11.30;2.60;;;6.90;99.90;;;;;;6067646;23;20438;-86
2022/04/09 01:05:12;;;;;;;13.00;2.38;;;5.00;99.90;;;;;;6045875;23;20029;-86
2022/04/09 01:07:39;;;;;;;9.68;2.08;;;8.40;99.90;;;;;;6093848;23;20513;-87
2022/04/09 01:10:08;;;;;;;7.47;2.05;;;6.80;99.90;;;;;;6046067;23;20103;-86
2022/04/09 01:12:36;;;;;;;8.45;1.65;;;6.50;99.90;;;;;;6094225;23;20019;-86
2022/04/09 01:15:06;;;;;;;8.52;2.13;;;9.50;99.90;;;;;;6045552;23;20018;-87
2022/04/09 01:17:32;;;;;;;8.05;1.98;;;;;;;;;;6067589;23;20350;-94
2022/04/09 01:19:59;;;;;;;13.80;2.13;;;;;;;;;;6044693;23;20032;-88
2022/04/09 01:22:24;;;;;;;9.18;2.10;;;5.30;99.90;;;;;;6067636;23;20097;-87
2022/04/09 01:24:50;;;;;;;10.35;1.88;;;7.30;99.90;;;;;;6044080;23;20050;-87
2022/04/09 01:27:16;;;;;;;6.95;1.83;;;;;;;;;;6068411;23;20085;-88
2022/04/09 01:29:43;;;;;;;12.15;2.42;;;5.70;99.90;;;;;;6068390;23;20022;-87
2022/04/09 01:32:10;;;;;;;8.48;1.90;;;6.40;99.90;;;;;;6044099;23;20018;-87
2022/04/09 01:34:37;;;;;;;7.72;2.10;;;5.60;99.90;;;;;;6043978;23;20022;-90
2022/04/09 01:37:03;;;;;;;12.63;2.35;;;6.80;99.90;;;;;;6044459;23;20033;-87
2022/04/09 01:39:32;;;;;;;10.80;1.77;;;6.70;99.90;;;;;;6044034;23;20023;-87
2022/04/09 01:41:57;;;;;;;6.75;2.10;;;7.70;99.90;;;;;;6043689;23;20022;-88
2022/04/09 01:44:23;;;;;;;11.35;2.28;;;7.30;99.90;;;;;;6093928;23;20033;-89
2022/04/09 01:46:49;;;;;;;13.15;2.88;;;6.60;99.90;;;;;;6043015;23;20034;-89
2022/04/09 01:49:14;;;;;;;13.45;2.17;;;7.40;99.90;;;;;;6044658;23;20469;-88
2022/04/09 01:51:41;;;;;;;9.35;2.40;;;;;;;;;;6043882;23;20412;-90
2022/04/09 01:54:07;;;;;;;15.00;2.72;;;;;;;;;;6021824;23;20019;-89
2022/04/09 01:56:35;;;;;;;20.77;2.67;;;6.90;99.90;;;;;;6045652;23;20019;-91
2022/04/09 01:59:01;;;;;;;17.38;2.53;;;6.90;99.90;;;;;;6071208;23;20081;-88
2022/04/09 02:01:27;;;;;;;18.70;2.63;;;;;;;;;;6069975;23;20034;-90
2022/04/09 02:03:53;;;;;;;15.18;2.55;;;;;;;;;;6095174;23;20022;-89
2022/04/09 02:06:19;;;;;;;9.32;2.70;;;6.70;99.90;;;;;;6096068;23;20358;-92
2022/04/09 02:08:45;;;;;;;14.82;2.33;;;7.00;99.90;;;;;;6095043;23;20101;-89
2022/04/09 02:11:11;;;;;;;12.60;2.80;;;7.10;99.90;;;;;;6022511;23;20358;-89
2022/04/09 02:13:36;;;;;;;7.90;2.70;;;6.60;99.90;;;;;;6070658;23;20018;-92
2022/04/09 02:16:02;;;;;;;9.98;2.50;;;6.50;99.90;;;;;;6069318;23;20090;-88
2022/04/09 02:18:28;;;;;;;14.38;2.60;;;6.60;99.90;;;;;;6070480;23;20029;-89
2022/04/09 02:20:55;;;;;;;16.67;2.88;;;6.80;99.90;;;;;;6045923;23;20022;-88
2022/04/09 02:23:20;;;;;;;27.85;3.53;;;8.60;99.90;;;;;;6070195;23;20026;-88
2022/04/09 02:25:46;;;;;;;20.17;2.97;;;7.00;99.90;;;;;;6070163;23;20414;-88
2022/04/09 02:28:12;;;;;;;20.27;3.10;;;7.50;99.90;;;;;;6095782;23;20042;-87
2022/04/09 02:30:40;;;;;;;13.18;2.80;;;;;;;;;;6047106;23;20015;-87
2022/04/09 02:33:06;;;;;;;29.10;3.40;;;6.60;99.90;;;;;;6045099;23;20022;-87
2022/04/09 02:35:31;;;;;;;9.80;2.53;;;6.50;99.90;;;;;;6022259;23;20057;-87
2022/04/09 02:37:57;;;;;;;16.60;3.03;;;6.50;99.90;;;;;;6069813;23;20026;-87
2022/04/09 02:40:24;;;;;;;19.02;2.95;;;9.30;99.90;;;;;;6071210;23;20020;-87
2022/04/09 02:42:50;;;;;;;15.73;2.92;;;6.60;99.90;;;;;;6070451;23;20019;-87
2022/04/09 02:45:16;;;;;;;18.80;2.88;;;;;;;;;;6070035;23;20033;-88
2022/04/09 02:47:45;;;;;;;14.77;2.47;;;;;;;;;;6045504;23;20050;-87
2022/04/09 02:50:12;;;;;;;19.77;3.17;;;6.60;99.90;;;;;;6095156;23;20027;-87
2022/04/09 02:52:43;;;;;;;22.80;3.22;;;6.30;99.90;;;;;;6068614;23;20069;-88
2022/04/09 02:55:09;;;;;;;15.30;2.47;;;6.40;99.90;;;;;;6046499;23;20093;-89
2022/04/09 02:57:40;;;;;;;20.85;2.80;;;6.80;99.90;;;;;;6021435;23;20022;-88
2022/04/09 03:00:11;;;;;;;11.18;2.53;;;5.40;99.90;;;;;;6069341;23;20446;-89
2022/04/09 03:02:38;;;;;;;10.40;2.22;;;6.60;99.90;;;;;;6045486;23;20034;-88
2022/04/09 03:05:04;;;;;;;13.00;2.83;;;6.90;99.90;;;;;;6094346;23;20069;-88
2022/04/09 03:07:31;;;;;;;19.27;2.75;;;;;;;;;;6045009;23;20395;-88
2022/04/09 03:09:57;;;;;;;18.55;2.72;;;;;;;;;;6095515;23;20086;-88
2022/04/09 03:12:22;;;;;;;6.28;1.95;;;6.60;99.90;;;;;;6069185;23;20526;-88
2022/04/09 03:14:48;;;;;;;7.60;2.13;;;7.20;99.90;;;;;;6045378;23;20061;-88
2022/04/09 03:17:17;;;;;;;14.40;2.42;;;6.00;99.90;;;;;;6094199;23;20022;-89
2022/04/09 03:19:46;;;;;;;15.07;2.38;;;6.10;99.90;;;;;;6068764;23;20481;-88
2022/04/09 03:22:11;;;;;;;12.45;2.10;;;6.40;99.90;;;;;;6023230;23;20129;-88
2022/04/09 03:24:38;;;;;;;17.35;2.95;;;6.10;99.90;;;;;;6068504;23;20030;-88
2022/04/09 03:27:03;;;;;;;18.33;2.58;;;6.40;99.90;;;;;;6095159;23;20081;-87
2022/04/09 03:29:29;;;;;;;23.90;2.50;;;8.60;99.90;;;;;;6095486;23;20019;-88
2022/04/09 03:31:57;;;;;;;6.30;2.13;;;;;;;;;;6093804;23;20022;-87
2022/04/09 03:34:23;;;;;;;23.38;3.10;;;6.20;99.90;;;;;;6045969;23;20061;-87
2022/04/09 03:36:55;;;;;;;18.60;3.13;;;6.20;99.90;;;;;;6045071;23;20022;-88
2022/04/09 03:39:20;;;;;;;12.98;2.58;;;6.30;99.90;;;;;;6094745;23;20022;-88
2022/04/09 03:41:46;;;;;;;13.07;2.70;;;6.50;99.90;;;;;;6021830;23;20549;-88
2022/04/09 03:44:12;;;;;;;12.55;2.50;;;6.80;99.90;;;;;;6046530;23;20108;-89
2022/04/09 03:46:37;;;;;;;10.65;2.55;;;6.40;99.90;;;;;;6069052;23;20095;-88
2022/04/09 03:49:03;;;;;;;17.27;2.45;;;7.10;99.90;;;;;;6069215;23;20257;-88
2022/04/09 03:51:29;;;;;;;12.02;2.97;;;;;;;;;;6045371;23;20015;-88
2022/04/09 03:53:55;;;;;;;9.15;2.92;;;;;;;;;;6069547;23;20025;-88
2022/04/09 03:56:22;;;;;;;8.45;2.17;;;6.70;99.90;;;;;;6068982;23;20421;-87
2022/04/09 03:58:49;;;;;;;17.10;2.97;;;7.20;99.90;;;;;;6044478;23;20077;-88
2022/04/09 04:01:16;;;;;;;16.63;2.70;;;;;;;;;;6044116;23;20488;-88
2022/04/09 04:03:41;;;;;;;15.15;2.30;;;6.10;99.90;;;;;;6045451;23;20454;-88
2022/04/09 04:06:07;;;;;;;9.40;2.45;;;4.50;99.90;;;;;;6020615;23;20022;-89
2022/04/09 04:08:33;;;;;;;10.23;2.08;;;6.60;99.90;;;;;;6092595;23;20025;-88
2022/04/09 04:11:02;;;;;;;13.18;2.30;;;7.00;99.90;;;;;;6067674;23;20051;-88
2022/04/09 04:13:30;;;;;;;13.15;2.17;;;8.80;99.90;;;;;;6069571;23;20314;-89
2022/04/09 04:15:56;;;;;;;8.13;2.05;;;6.10;99.90;;;;;;6069531;23;20014;-89
2022/04/09 04:18:22;;;;;;;4.97;1.75;;;;;;;;;;6068191;23;20029;-88
2022/04/09 04:20:48;;;;;;;8.15;2.00;;;;;;;;;;6020513;23;20126;-91
2022/04/09 04:23:14;;;;;;;12.00;1.95;;;;;;;;;;6045928;23;20065;-88
2022/04/09 04:25:40;;;;;;;14.30;2.10;;;6.20;99.90;;;;;;6095343;23;20026;-88
2022/04/09 04:28:05;;;;;;;9.43;1.95;;;6.30;99.90;;;;;;6094508;23;20018;-87
2022/04/09 04:30:31;;;;;;;10.70;2.15;;;8.90;99.90;;;;;;6069222;23;20089;-89
2022/04/09 04:32:57;;;;;;;7.22;2.03;;;6.50;99.90;;;;;;6044671;23;20111;-89
2022/04/09 04:35:28;;;;;;;27.40;3.03;;;7.80;99.90;;;;;;6021576;23;20019;-87
2022/04/09 04:37:54;;;;;;;7.72;1.83;;;6.30;99.90;;;;;;6069560;23;20018;-89
2022/04/09 04:40:20;;;;;;;11.18;2.15;;;6.80;99.90;;;;;;6045617;23;20091;-87
2022/04/09 04:42:45;;;;;;;9.07;1.95;;;6.70;99.90;;;;;;6045383;23;20113;-88
2022/04/09 04:45:11;;;;;;;12.35;2.38;;;6.50;99.90;;;;;;6022248;23;20026;-88
2022/04/09 04:47:45;;;;;;;8.02;1.90;;;6.40;99.90;;;;;;6093634;23;20509;-88
2022/04/09 04:50:11;;;;;;;10.75;2.17;;;;;;;;;;6093955;23;20295;-88
2022/04/09 04:52:37;;;;;;;10.65;2.35;;;6.70;99.90;;;;;;6043475;23;20453;-90
2022/04/09 04:55:03;;;;;;;11.45;2.70;;;7.10;99.90;;;;;;6068696;23;20089;-88
2022/04/09 04:57:30;;;;;;;10.90;2.35;;;;;;;;;;6045731;23;20097;-88
2022/04/09 04:59:59;;;;;;;7.27;2.03;;;6.80;99.90;;;;;;6095579;23;20426;-87
2022/04/09 05:02:25;;;;;;;8.32;2.50;;;7.20;99.90;;;;;;6069203;23;20093;-88
2022/04/09 05:04:50;;;;;;;11.73;1.98;;;6.70;99.90;;;;;;6069351;23;20101;-88
2022/04/09 05:07:17;;;;;;;15.60;3.03;;;6.20;99.90;;;;;;6069731;23;20026;-89
2022/04/09 05:09:43;;;;;;;14.48;2.90;;;;;;;;;;6044176;23;20021;-87
2022/04/09 05:12:09;;;;;;;15.70;2.65;;;6.00;99.90;;;;;;6044434;23;20045;-87
2022/04/09 05:14:35;;;;;;;28.15;3.40;;;;;;;;;;6069591;23;20014;-87
2022/04/09 05:17:01;;;;;;;9.52;2.22;;;6.60;99.90;;;;;;6093777;23;20136;-87
2022/04/09 05:19:27;;;;;;;16.77;2.90;;;6.10;99.90;;;;;;6044365;23;20057;-88
2022/04/09 05:21:53;;;;;;;15.68;2.63;;;;;;;;;;6043053;23;20105;-90
2022/04/09 05:24:19;;;;;;;18.20;2.97;;;;;;;;;;6068142;23;20022;-92
2022/04/09 05:26:45;;;;;;;21.98;2.78;;;;;;;;;;6044559;23;20019;-92
2022/04/09 05:29:11;;;;;;;17.65;2.70;;;;;;;;;;6041852;23;20038;-89
2022/04/09 05:31:37;;;;;;;22.15;3.05;;;7.40;99.90;;;;;;6020924;23;20129;-89
2022/04/09 05:34:03;;;;;;;16.80;2.92;;;5.10;99.90;;;;;;6067603;23;20022;-90
2022/04/09 05:36:30;;;;;;;14.65;3.00;;;;;;;;;;6020875;23;20097;-91
2022/04/09 05:38:55;;;;;;;19.52;3.03;;;6.80;99.90;;;;;;6068957;23;20137;-92
2022/04/09 05:41:21;;;;;;;16.60;2.90;;;6.00;99.90;;;;;;6093775;23;20102;-91
2022/04/09 05:43:48;;;;;;;15.50;2.28;;;;;;;;;;6020834;23;20026;-90
2022/04/09 05:46:14;;;;;;;11.55;3.10;;;;;;;;;;6067393;23;20070;-90
2022/04/09 05:48:39;;;;;;;16.40;2.88;;;6.10;99.90;;;;;;6068220;23;20050;-90
2022/04/09 05:51:05;;;;;;;15.95;3.28;;;6.70;99.90;;;;;;6093529;23;20022;-89
2022/04/09 05:53:31;;;;;;;18.65;4.28;;;5.40;99.90;;;;;;6093712;23;20018;-89
2022/04/09 05:55:57;;;;;;;27.50;3.90;;;;;;;;;;6020646;23;20105;-91
2022/04/09 05:58:23;;;;;;;11.73;4.05;;;6.30;99.90;;;;;;6094533;23;20382;-88
2022/04/09 06:00:48;;;;;;;13.07;5.00;;;8.00;99.90;;;;;;6094630;23;20109;-89
2022/04/09 06:03:16;;;;;;;26.77;4.65;;;8.90;99.90;;;;;;6068183;23;20125;-89
2022/04/09 06:05:42;;;;;;;12.80;3.40;;;6.80;99.90;;;;;;6094063;23;20025;-89
2022/04/09 06:08:07;;;;;;;9.75;2.55;;;5.30;99.90;;;;;;6093382;23;20044;-89
2022/04/09 06:10:33;;;;;;;18.52;2.92;;;8.70;99.90;;;;;;6044065;23;20074;-88
2022/04/09 06:13:05;;;;;;;14.60;2.80;;;6.60;99.90;;;;;;6066939;23;20097;-90
2022/04/09 06:15:31;;;;;;;14.32;2.90;;;9.20;99.90;;;;;;6068018;23;20018;-89
2022/04/09 06:17:56;;;;;;;19.83;3.28;;;6.50;99.90;;;;;;6067387;23;20026;-89
2022/04/09 06:20:22;;;;;;;17.85;2.75;;;6.70;99.90;;;;;;6092106;23;20022;-89
2022/04/09 06:22:48;;;;;;;8.30;2.47;;;6.70;99.90;;;;;;6067294;23;20018;-88
2022/04/09 06:25:14;;;;;;;11.02;2.53;;;;;;;;;;6066467;23;20421;-88
2022/04/09 06:27:41;;;;;;;13.85;2.92;;;6.80;99.90;;;;;;6043252;23;20015;-89
2022/04/09 06:30:07;;;;;;;12.25;2.50;;;7.30;99.90;;;;;;6043560;23;20069;-90
2022/04/09 06:32:33;;;;;;;12.20;2.63;;;;;;;;;;6043765;23;20014;-89
2022/04/09 06:35:02;;;;;;;10.75;2.70;;;7.00;99.90;;;;;;6068148;23;20023;-92
2022/04/09 06:37:28;;;;;;;17.30;2.88;;;7.00;99.90;;;;;;6093836;23;20029;-90
2022/04/09 06:39:55;;;;;;;14.98;3.00;;;7.10;99.90;;;;;;6068149;23;20023;-89
2022/04/09 06:42:21;;;;;;;12.07;2.47;;;;;;;;;;6069790;23;20029;-87
2022/04/09 06:44:48;;;;;;;9.68;2.33;;;;;;;;;;6096394;23;20033;-85
2022/04/09 06:47:13;;;;;;;11.20;3.08;;;9.90;99.90;;;;;;6046205;23;20038;-85
2022/04/09 06:49:39;;;;;;;21.70;3.33;;;8.10;99.90;;;;;;6095993;23;20023;-91
2022/04/09 06:52:05;;;;;;;10.00;2.83;;;;;;;;;;6094116;23;20022;-85
2022/04/09 06:54:31;;;;;;;16.75;2.70;;;8.40;99.90;;;;;;6071429;23;20024;-83
2022/04/09 06:56:58;;;;;;;11.18;2.42;;;;;;;;;;6046740;23;20057;-85
2022/04/09 06:59:23;;;;;;;19.92;3.40;;;8.20;99.90;;;;;;6070647;23;20098;-86
2022/04/09 07:01:49;;;;;;;14.88;2.90;;;;;;;;;;6045534;23;20057;-85
2022/04/09 07:04:16;;;;;;;18.65;2.88;;;;;;;;;;6047101;23;20026;-86
2022/04/09 07:06:46;;;;;;;14.40;3.08;;;7.50;99.90;;;;;;6070624;23;20018;-85
2022/04/09 07:09:13;;;;;;;12.82;2.80;;;;;;;;;;6046722;23;20040;-86
2022/04/09 07:11:38;;;;;;;16.20;2.80;;;8.20;99.90;;;;;;6097097;23;20398;-86
2022/04/09 07:14:04;;;;;;;18.45;2.72;;;8.00;99.90;;;;;;6070421;23;20022;-87
2022/04/09 07:16:31;;;;;;;11.88;2.50;;;;;;;;;;6095632;23;20018;-85
2022/04/09 07:18:56;;;;;;;19.63;3.03;;;8.30;99.90;;;;;;6071378;23;20018;-85
2022/04/09 07:21:22;;;;;;;18.15;4.00;;;7.90;99.90;;;;;;6070686;23;20575;-86
2022/04/09 07:23:48;;;;;;;13.38;2.70;;;8.40;99.90;;;;;;6096335;23;20101;-86
2022/04/09 07:26:18;;;;;;;13.02;3.00;;;9.70;99.90;;;;;;6096011;23;20022;-86
2022/04/09 07:28:46;;;;;;;14.15;3.90;;;9.50;99.90;;;;;;6045281;23;20093;-88
2022/04/09 07:31:12;;;;;;;10.20;4.18;;;9.00;99.90;;;;;;6021351;23;20319;-87
2022/04/09 07:33:41;;;;;;;16.38;2.90;;;8.70;99.90;;;;;;6093763;23;20025;-86
2022/04/09 07:36:07;;;;;;;18.55;9.52;;;10.20;99.90;;;;;;6069151;23;20027;-87
2022/04/09 07:38:32;;;;;;;18.92;3.72;;;10.40;99.90;;;;;;6095462;23;20037;-88
2022/04/09 07:40:58;;;;;;;15.32;2.58;;;11.90;99.90;;;;;;6045781;23;20021;-86
2022/04/09 07:43:24;;;;;;;7.18;2.28;;;11.80;99.90;;;;;;6094000;23;20699;-90
2022/04/09 07:45:50;;;;;;;8.43;3.35;;;13.70;99.90;;;;;;6069576;23;20018;-87
2022/04/09 07:48:16;;;;;;;8.85;1.85;;;13.30;99.90;;;;;;6068659;23;20054;-88
2022/04/09 07:50:41;;;;;;;14.57;1.95;;;13.80;99.90;;;;;;6095110;23;20077;-87
2022/04/09 07:53:09;;;;;;;4.85;1.67;;;14.40;99.90;;;;;;6069978;23;20026;-91
2022/04/09 07:55:38;;;;;;;4.97;1.60;;;15.10;99.90;;;;;;6069731;23;20014;-87
2022/04/09 07:58:05;;;;;;;10.73;2.28;;;13.90;99.90;;;;;;6095028;23;20521;-87
2022/04/09 08:00:31;;;;;;;7.88;1.80;;;13.30;99.90;;;;;;6070194;23;20097;-87
2022/04/09 08:03:03;;;;;;;8.13;2.28;;;13.40;99.90;;;;;;6069702;23;20502;-86
2022/04/09 08:05:29;;;;;;;10.15;1.83;;;13.40;99.90;;;;;;6045649;23;20446;-87
2022/04/09 08:07:57;;;;;;;11.13;1.80;;;14.20;99.90;;;;;;6095637;23;20040;-86
2022/04/09 08:10:23;;;;;;;15.82;2.25;;;14.50;99.90;;;;;;6070857;23;20026;-87
2022/04/09 08:12:51;;;;;;;9.60;2.22;;;14.30;99.90;;;;;;6070058;23;20185;-87
2022/04/09 08:15:18;;;;;;;16.42;2.00;;;14.30;99.90;;;;;;6093522;23;20026;-86
2022/04/09 08:17:44;;;;;;;10.83;2.30;;;13.80;99.90;;;;;;6095808;23;20090;-86
2022/04/09 08:20:13;;;;;;;11.30;2.10;;;13.30;99.90;;;;;;6095856;23;20094;-86
2022/04/09 08:22:39;;;;;;;11.25;2.40;;;14.00;99.90;;;;;;6069664;23;20054;-86
2022/04/09 08:25:05;;;;;;;12.50;2.17;;;14.50;99.90;;;;;;6095701;23;20034;-86
2022/04/09 08:27:31;;;;;;;10.75;2.28;;;15.10;99.90;;;;;;6095607;23;20015;-84
2022/04/09 08:29:57;;;;;;;9.02;2.33;;;15.20;99.90;;;;;;6069424;23;20041;-89
2022/04/09 08:32:25;;;;;;;12.40;2.50;;;14.80;99.90;;;;;;6094759;23;20030;-86
2022/04/09 08:34:50;;;;;;;;;;;14.10;99.90;;;;;;6070284;23;20049;-86
2022/04/09 08:37:22;;;;;;;8.50;1.95;;;14.50;99.90;;;;;;6069846;23;19933;-84
2022/04/09 08:39:51;;;;;;;7.47;1.80;;;14.90;99.90;;;;;;6071558;23;20287;-85
2022/04/09 08:42:21;;;;;;;12.32;2.30;;;15.10;99.90;;;;;;6023054;23;20350;-89
2022/04/09 08:44:48;;;;;;;6.70;1.80;;;14.50;99.90;;;;;;6046135;23;20022;-85
2022/04/09 08:47:15;;;;;;;11.27;1.77;;;;;;;;;;6094553;23;20339;-86
2022/04/09 08:49:47;;;;;;;21.75;2.13;;;13.70;99.90;;;;;;6068787;23;20023;-88
2022/04/09 08:52:14;;;;;;;16.38;2.72;;;14.10;99.90;;;;;;6095192;23;20018;-87
2022/04/09 08:54:41;;;;;;;8.43;1.97;;;14.70;99.90;;;;;;6045357;23;20341;-87
2022/04/09 08:57:07;;;;;;;13.32;2.40;;;13.10;99.90;;;;;;6069250;23;20059;-88
2022/04/09 08:59:33;;;;;;;12.95;2.50;;;13.00;99.90;;;;;;6095335;23;20015;-85
2022/04/09 09:01:59;;;;;;;7.93;1.80;;;16.00;99.90;;;;;;6044720;23;20490;-87
2022/04/09 09:04:25;;;;;;;18.10;2.58;;;14.70;99.90;;;;;;6068837;23;20113;-87
2022/04/09 09:06:51;;;;;;;14.98;2.65;;;15.70;99.90;;;;;;6069081;23;20097;-86
2022/04/09 09:09:27;;;;;;;9.70;1.92;;;16.50;99.90;;;;;;6093960;23;20029;-87
2022/04/09 09:11:53;;;;;;;13.40;2.05;;;17.20;99.90;;;;;;6095109;23;20026;-88
2022/04/09 09:14:36;;;;;;;6.75;1.92;;;17.60;99.90;;;;;;6045088;23;20042;-88
2022/04/09 09:17:03;;;;;;;11.00;2.45;;;17.80;99.90;;;;;;6068296;23;20093;-85
2022/04/09 09:19:47;;;;;;;12.07;2.10;;;16.80;99.90;;;;;;6067876;23;20029;-87
2022/04/09 09:22:14;;;;;;;11.52;2.22;;;16.20;99.90;;;;;;6093015;23;20018;-91
2022/04/09 09:24:40;;;;;;;14.75;2.65;;;15.40;99.90;;;;;;6066615;23;20413;-88
2022/04/09 09:27:06;;;;;;;16.52;2.63;;;15.00;99.90;;;;;;6093101;23;20050;-87
2022/04/09 09:29:33;;;;;;;12.23;2.08;;;13.60;99.90;;;;;;6092964;23;20015;-86
2022/04/09 09:32:04;;;;;;;15.87;2.33;;;14.80;99.90;;;;;;6093106;23;20026;-89
2022/04/09 09:34:31;;;;;;;8.77;1.92;;;16.00;99.90;;;;;;6092579;23;20560;-87
2022/04/09 09:36:57;;;;;;;14.05;2.75;;;;;;;;;;6090619;23;20026;-85
2022/04/09 09:39:25;;;;;;;19.13;2.60;;;17.70;99.90;;;;;;6043456;23;20422;-86
2022/04/09 09:41:52;;;;;;;9.10;1.98;;;18.10;99.90;;;;;;6045310;23;20022;-87
2022/04/09 09:44:20;;;;;;;7.63;2.08;;;16.50;99.90;;;;;;6078651;23;20045;-86
2022/04/09 09:46:49;;;;;;;11.10;2.28;;;16.50;99.90;;;;;;6103723;23;20050;-85
2022/04/09 09:49:19;;;;;;;12.88;2.10;;;15.60;99.90;;;;;;6052123;23;20359;-89
2022/04/09 09:52:05;;;;;;;8.70;1.90;;;15.00;99.90;;;;;;6104544;23;20023;-86
2022/04/09 09:54:31;;;;;;;11.05;2.05;;;16.10;99.90;;;;;;6103369;23;20018;-84
2022/04/09 09:56:57;;;;;;;10.32;2.17;;;15.40;99.90;;;;;;6054586;23;20315;-85
2022/04/09 09:59:26;;;;;;;9.50;2.63;;;14.30;99.90;;;;;;6080849;23;20462;-84
2022/04/09 10:01:54;;;;;;;10.82;2.15;;;14.30;99.90;;;;;;6077019;23;20054;-87
2022/04/09 10:04:20;;;;;;;7.95;2.25;;;15.90;99.90;;;;;;6100468;23;20482;-84
2022/04/09 10:06:46;;;;;;;11.18;2.47;;;13.50;99.90;;;;;;6095873;23;20314;-85
2022/04/09 10:09:18;;;;;;;9.85;2.28;;;14.40;99.90;;;;;;6094838;23;20014;-86
2022/04/09 10:11:54;;;;;;;41.45;3.75;;;15.70;99.90;;;;;;6045561;23;20034;-85
2022/04/09 10:14:28;;;;;;;9.65;2.28;;;16.40;99.90;;;;;;6097424;23;20066;-86
2022/04/09 10:16:55;;;;;;;7.75;2.13;;;15.40;99.90;;;;;;6104726;23;20423;-86
2022/04/09 10:19:26;;;;;;;8.60;2.10;;;13.90;99.90;;;;;;6094948;23;20090;-86
2022/04/09 10:21:53;;;;;;;6.82;1.67;;;14.10;99.90;;;;;;6047343;23;20093;-85
2022/04/09 10:24:25;;;;;;;9.57;2.30;;;16.90;99.90;;;;;;6070842;23;20014;-86
2022/04/09 10:26:56;;;;;;;7.55;2.75;;;15.50;99.90;;;;;;6096929;23;20014;-86
2022/04/09 10:29:21;;;;;;;3.97;1.38;;;14.70;99.90;;;;;;6095843;23;20018;-86
2022/04/09 10:31:51;;;;;;;7.45;1.67;;;16.40;99.90;;;;;;6095070;23;20354;-86
2022/04/09 10:34:25;;;;;;;6.13;1.92;;;16.80;99.90;;;;;;6070366;23;20315;-86
2022/04/09 10:36:59;;;;;;;5.07;0.82;;;16.50;99.90;;;;;;6045877;23;20077;-84
2022/04/09 10:39:40;;;;;;;3.30;1.17;;;16.20;99.90;;;;;;6046853;23;20025;-85
2022/04/09 10:42:06;;;;;;;8.18;1.60;;;15.90;99.90;;;;;;6070203;23;20097;-85
2022/04/09 10:44:42;;;;;;;10.95;1.90;;;13.00;99.90;;;;;;6093699;23;20097;-86
2022/04/09 10:47:09;;;;;;;5.65;1.88;;;14.60;99.90;;;;;;6069390;23;20026;-86
2022/04/09 10:49:35;;;;;;;6.10;1.50;;;14.10;99.90;;;;;;6094392;23;20018;-86
2022/04/09 10:52:25;;;;;;;8.32;1.45;;;13.90;99.90;;;;;;6093849;23;20090;-85
2022/04/09 10:55:15;;;;;;;10.80;1.88;;;13.70;99.90;;;;;;6069223;23;20024;-85
2022/04/09 10:57:46;;;;;;;10.48;2.05;;;13.30;99.90;;;;;;6069895;23;20022;-85
2022/04/09 11:00:22;;;;;;;8.82;1.60;;;;;;;;;;6046947;23;20081;-85
2022/04/09 11:03:14;;;;;;;7.40;1.50;;;12.90;99.90;;;;;;6070490;23;20053;-85
2022/04/09 11:05:41;;;;;;;8.60;1.58;;;12.70;99.90;;;;;;6046408;23;20161;-86
2022/04/09 11:08:07;;;;;;;9.18;1.50;;;;;;;;;;6046896;23;20033;-85
2022/04/09 11:10:33;;;;;;;5.85;1.27;;;14.60;99.90;;;;;;6070322;23;20058;-85
2022/04/09 11:13:01;;;;;;;5.53;1.30;;;15.80;99.90;;;;;;6046207;23;20029;-87
2022/04/09 11:15:28;;;;;;;7.22;1.73;;;16.50;99.90;;;;;;6070646;23;20484;-86
2022/04/09 11:18:02;;;;;;;6.75;1.73;;;16.70;99.90;;;;;;6070996;23;20116;-85
2022/04/09 11:20:33;;;;;;;6.93;1.48;;;16.90;99.90;;;;;;6069546;23;20442;-85
2022/04/09 11:23:15;;;;;;;8.10;1.80;;;17.10;99.90;;;;;;6095761;23;20171;-86
2022/04/09 11:25:42;;;;;;;3.85;1.40;;;16.40;99.90;;;;;;6094748;23;20097;-88
2022/04/09 11:28:17;;;;;;;9.10;1.55;;;15.60;99.90;;;;;;6046017;23;20398;-86
2022/04/09 11:30:53;;;;;;;8.82;1.80;;;14.70;99.90;;;;;;6070047;23;20117;-85
2022/04/09 11:33:20;;;;;;;11.93;2.35;;;14.10;99.90;;;;;;6093339;23;20122;-85
2022/04/09 11:35:46;;;;;;;7.05;1.80;;;14.90;99.90;;;;;;6094886;23;20054;-86
2022/04/09 11:38:12;;;;;;;7.47;1.60;;;13.60;99.90;;;;;;6069013;23;20026;-86
2022/04/09 11:40:46;;;;;;;13.40;2.50;;;12.70;99.90;;;;;;6095125;23;20023;-87
2022/04/09 11:43:14;;;;;;;9.10;1.88;;;14.20;99.90;;;;;;6048083;23;20097;-85
2022/04/09 11:45:40;;;;;;;5.88;1.80;;;14.60;99.90;;;;;;6094923;23;20014;-86
2022/04/09 11:48:06;;;;;;;9.32;1.80;;;15.10;99.90;;;;;;6022435;23;20026;-86
2022/04/09 11:50:39;;;;;;;8.82;1.73;;;15.90;99.90;;;;;;6094651;23;20018;-85
2022/04/09 11:53:09;;;;;;;6.30;1.50;;;16.00;99.90;;;;;;6070214;23;20018;-85
2022/04/09 11:55:35;;;;;;;11.00;1.52;;;15.40;99.90;;;;;;6095053;23;20132;-84
2022/04/09 11:58:01;;;;;;;6.00;1.33;;;14.90;99.90;;;;;;6069864;23;20097;-86
2022/04/09 12:00:27;;;;;;;5.30;1.40;;;14.30;99.90;;;;;;6095189;23;20022;-85
2022/04/09 12:02:54;;;;;;;8.60;1.52;;;13.90;99.90;;;;;;6070019;23;20300;-85
2022/04/09 12:05:22;;;;;;;7.18;1.42;;;14.50;99.90;;;;;;6070559;23;20445;-85
2022/04/09 12:07:48;;;;;;;3.53;1.13;;;15.90;99.90;;;;;;6094270;23;20023;-86
2022/04/09 12:10:28;;;;;;;4.95;1.40;;;16.90;99.90;;;;;;6070619;23;20033;-84
2022/04/09 12:13:01;;;;;;;8.45;1.67;;;16.90;99.90;;;;;;6069064;23;20022;-85
2022/04/09 12:15:34;;;;;;;8.70;2.25;;;17.40;99.90;;;;;;6046244;23;20433;-86
2022/04/09 12:18:04;;;;;;;6.13;1.50;;;16.60;99.90;;;;;;6069857;23;20034;-85
2022/04/09 12:20:37;;;;;;;3.88;1.27;;;15.90;99.90;;;;;;6094581;23;20025;-86
2022/04/09 12:23:05;;;;;;;8.05;1.73;;;15.20;99.90;;;;;;6095223;23;20018;-86
2022/04/09 12:25:34;;;;;;;8.93;1.70;;;14.40;99.90;;;;;;6094183;23;20015;-86
2022/04/09 12:28:00;;;;;;;6.85;1.70;;;13.90;99.90;;;;;;6093619;23;20023;-86
2022/04/09 12:30:41;;;;;;;11.00;1.60;;;13.80;99.90;;;;;;6069335;23;20027;-86
2022/04/09 12:33:11;;;;;;;7.63;1.50;;;13.80;99.90;;;;;;6095124;23;20085;-87
2022/04/09 12:35:41;;;;;;;5.70;1.20;;;13.70;99.90;;;;;;6045172;23;20398;-85
2022/04/09 12:38:06;;;;;;;5.32;1.40;;;13.50;99.90;;;;;;6046266;23;20457;-86
2022/04/09 12:40:33;;;;;;;9.00;1.40;;;13.20;99.90;;;;;;6095517;23;20077;-86
2022/04/09 12:43:00;;;;;;;3.60;1.25;;;13.10;99.90;;;;;;6070143;23;20073;-85
2022/04/09 12:45:27;;;;;;;1.63;0.95;;;13.30;99.90;;;;;;6046262;23;20097;-85
2022/04/09 12:48:01;;;;;;;8.63;1.40;;;14.60;99.90;;;;;;6046779;23;20037;-86
2022/04/09 12:50:34;;;;;;;7.72;1.40;;;12.80;99.90;;;;;;6094936;23;20026;-87
2022/04/09 12:53:02;;;;;;;6.88;1.40;;;12.90;99.90;;;;;;6094837;23;20018;-86
2022/04/09 12:55:32;;;;;;;2.95;0.93;;;12.70;99.90;;;;;;6069884;23;20022;-85
2022/04/09 12:57:59;;;;;;;7.22;1.55;;;12.90;99.90;;;;;;6068783;23;20355;-87
2022/04/09 13:00:31;;;;;;;3.97;1.23;;;13.30;99.90;;;;;;6094934;23;20023;-88
2022/04/09 13:03:03;;;;;;;5.82;1.40;;;13.20;99.90;;;;;;6069049;23;20022;-86